Tiempo atmosférico en la estación meteorológica de Garrucha, Puerto, Almería (12 m.)



Fecha
DESCASC
Temp. máxima en grados centígrados (hora)
DESCASC
Temp. mínima en grados centígrados (hora)
DESCASC
Temp. media en grados centígrados
DESCASC
Racha de viento máxima en m/sg (hora)
DESCASC
Velocidad máxima media en intervalos de 10 minutos(hora)
DESCASC
Precipitaciones diarias en mm
DESCASC
Precipitaciones de 00:00 a 06:00 en mm
DESCASC
Precipitaciones de 06:00 a 12:00 en mm
DESCASC
Precipitaciones de 12:00 a 18:00 en mm
DESCASC
Precipitaciones de 18:00 a 24:00 en mm
DESCASC
18-01-2018 16.1 (13:10) 9.9 (05:50) 13 8.61 (15:40) 6.67 (15:40) 0 0 0 0 0
17-01-2018 18.3 (12:20) 9.1 (08:10) 13.7 7.22 (14:10) 6.11 (14:10) 0 0 0 0 0
16-01-2018 18.7 (17:30) 5.7 (08:10) 12.2 10 (19:50) 7.78 (19:40) 0 0 0 0 0
15-01-2018 14.2 (15:20) 8.3 (07:50) 11.3 7.22 (23:59) 6.11 (23:59) 0 0 0 0 0
14-01-2018 15.2 (11:20) 7.2 (00:00) 11.2 8.89 (20:40) 6.94 (08:50) 0 0 0 0 0
13-01-2018 14.6 (17:10) 6 (00:00) 10.3 9.72 (14:40) 8.61 (14:50) 0 0 0 0 0
12-01-2018 16.6 (14:00) 9.4 (00:00) 13 13.89 (14:30) 10.28 (16:30) 0 0 0 0 0
11-01-2018 17.3 (00:30) 12.7 (00:00) 15 17.5 (01:40) 11.39 (01:40) 0 0 0 0 0
10-01-2018 18.7 (13:50) 9.1 (00:00) 13.9 15.28 (15:50) 9.72 (15:50) 1.6 1.6 0 0 0
09-01-2018 14.8 (16:40) 4.9 (00:00) 9.9 10 (15:30) 8.33 (15:30) 0 0 0 0 0
08-01-2018 13.7 (12:50) 3.9 (00:00) 8.8 6.94 (18:00) 6.11 (18:00) 0 0 0 0 0
07-01-2018 14.1 (12:20) 6.6 (00:00) 10.4 13.33 (17:00) 8.61 (16:20) 0 0 0 0 0
06-01-2018 15.3 (14:10) 8.5 (00:00) 11.9 14.17 (14:20) 10.56 (14:30) 0 0 0 0 0
05-01-2018 16.5 (11:30) 10.2 (00:00) 13.3 5.56 (14:00) 4.72 (14:00) 0 0 0 0 0
04-01-2018 18.5 (16:50) 12.1 (08:20) 15.3 7.22 (04:10) 5.56 (04:10) 0 0 0 0 0
03-01-2018 18.5 (10:40) 12.6 (00:00) 15.6 6.67 (13:20) 6.39 (13:00) 0 0 0 0 0
02-01-2018 16.7 (15:10) 11.4 (00:00) 14.1 10 (00:30) 6.39 (00:30) 0 0 0 0 0
01-01-2018 19.1 (00:00) 11 (00:00) 15.1 15.56 (00:50) 11.39 (15:30) 0 0 0 0 0
31-12-2017 19.7 (21:10) 9.1 (00:00) 14.4 16.67 (22:40) 12.22 (22:40) 0 0 0 0 0
30-12-2017 18.1 (11:10) 11.7 (00:00) 14.9 8.06 (14:20) 6.94 (14:10) 0 0 0 0 0
29-12-2017 22.7 (14:50) 14.9 (00:00) 18.8 14.17 (00:30) 8.89 (00:30) 0 0 0 0 0
28-12-2017 21.9 (14:40) 12.4 (00:00) 17.1 18.06 (13:00) 10.83 (13:20) 0 0 0 0 0
27-12-2017 20 (13:10) 12.8 (00:00) 16.4 25 (14:00) 14.72 (14:10) 0 0 0 0 0
26-12-2017 18.4 (15:00) 10.7 (00:00) 14.5 13.33 (16:30) 8.33 (16:30) 0 0 0 0 0
25-12-2017 15.7 (16:10) 7.3 (00:00) 11.5 10.56 (14:30) 8.61 (15:50) 0 0 0 0 0
24-12-2017 15.7 (12:00) 9.8 (00:00) 12.8 6.67 (14:50) 5 (14:50) 0 0 0 0 0
23-12-2017 15.6 (13:10) 8 (00:00) 11.8 6.11 (05:20) 4.72 (05:30) 0 0 0 0 0
22-12-2017 18.4 (16:50) 7.4 (00:00) 12.9 10 (18:20) 7.5 (17:20) 0 0 0 0 0

Gráficas

Temp. máximas Temp. mínimas Temp. medias Precipitaciones Rachas de viento máximas Velocidades máximas media en intervalos de 10 minutos

Datos horarios

Fecha y hora oficial Temperatura (ºC) Velocidad del viento (km/h) Dirección del viento Racha (km/h) Dirección de racha Precipitación (mm) Presión (hPa) Tendencia (hPa) Humedad (%)
2018-01-20 23:00:00 14.2 14 Sudoeste 18 Sudoeste 0 -- -- 48
2018-01-20 22:00:00 16 12 Sudoeste 18 Sudoeste 0 -- -- 41
2018-01-20 21:00:00 16.3 5 Sudoeste 16 Sudoeste 0 -- -- 43
2018-01-20 20:00:00 19.2 14 Sudoeste 23 Sudoeste 0 -- -- 36
2018-01-20 19:00:00 16.3 14 Sudoeste 21 Sur 0 -- -- 59
2018-01-20 18:00:00 16.1 26 Sur 33 Sur 0 -- -- 79
2018-01-20 17:00:00 16.8 28 Sur 37 Sur 0 -- -- 73
2018-01-20 16:00:00 15.8 32 Sur 43 Sur 0 -- -- 81
2018-01-20 15:00:00 15.7 22 Sudeste 32 Sur 0 -- -- 81
2018-01-20 14:00:00 15 23 Sudeste 30 Sur 0 -- -- 91
2018-01-20 13:00:00 15.1 25 Sur 28 Sur 0 -- -- 81
2018-01-20 12:00:00 16.1 5 Sudeste 10 Sudeste 0 -- -- 60
2018-01-20 11:00:00 14.1 8 Norte 13 Norte 0 -- -- 61
2018-01-20 10:00:00 13.4 5 Oeste 24 Sudoeste 0 -- -- 54
2018-01-20 09:00:00 12.6 14 Oeste 19 Oeste 0 -- -- 56
2018-01-20 08:00:00 12.1 10 Oeste 18 Oeste 0 -- -- 59
2018-01-20 07:00:00 13.1 15 Oeste 19 Oeste 0 -- -- 57
2018-01-20 06:00:00 12.2 14 Noroeste 22 Noroeste 0 -- -- 57
2018-01-20 05:00:00 11.2 9 Sudoeste 14 Oeste 0 -- -- 65
2018-01-20 04:00:00 12.1 6 Noroeste 17 Oeste 0 -- -- 63
2018-01-20 03:00:00 12.9 15 Oeste 19 Oeste 0 -- -- 61
2018-01-20 02:00:00 12.1 13 Oeste 17 Oeste 0 -- -- 70
2018-01-20 01:00:00 11.8 10 Oeste 21 Noroeste 0 -- -- 74
2018-01-20 00:00:00 11.9 15 Oeste 26 Oeste 0 -- -- 76
2018-01-19 23:00:00 11.4 14 Noroeste 19 Oeste 0 -- -- 85
2018-01-19 22:00:00 11.4 12 Noroeste 18 Noroeste 0 -- -- 89
2018-01-19 21:00:00 12.1 13 Oeste 18 Oeste 0 -- -- 89
2018-01-19 20:00:00 12.9 6 Oeste 13 Oeste 0 -- -- 86
2018-01-19 19:00:00 14 10 Sudoeste 31 Sur 0 -- -- 85
2018-01-19 18:00:00 14.7 26 Sudeste 29 Sudeste 0 -- -- 85
2018-01-19 17:00:00 14.8 23 Sudeste 27 Sudeste 0 -- -- 82
2018-01-19 16:00:00 14.8 15 Sur 18 Sudeste 0 -- -- 78
2018-01-19 15:00:00 15.1 17 Sudeste 20 Este 0 -- -- 76
2018-01-19 14:00:00 16.3 5 Noroeste 13 Oeste 0 -- -- 60
2018-01-19 13:00:00 15.5 5 Noroeste 11 Oeste 0 -- -- 68
2018-01-19 12:00:00 14.3 7 Noroeste 15 Oeste 0 -- -- 71
2018-01-19 11:00:00 13.2 13 Oeste 20 Noroeste 0 -- -- 74
2018-01-19 10:00:00 12.3 12 Oeste 17 Oeste 0 -- -- 79
2018-01-19 09:00:00 11.6 13 Noroeste 19 Oeste 0 -- -- 81
2018-01-19 08:00:00 12.6 3 Noroeste 9 Oeste 0 -- -- 78
2018-01-19 07:00:00 12.1 3 Oeste 16 Oeste 0 -- -- 78
2018-01-19 06:00:00 12.4 13 Oeste 18 Oeste 0 -- -- 78
2018-01-19 05:00:00 12.4 9 Noroeste 20 Noroeste 0 -- -- 79
2018-01-19 04:00:00 12.1 6 Noroeste 15 Norte 0 -- -- 82
2018-01-19 03:00:00 12.4 6 Norte 14 Noroeste 0 -- -- 86
2018-01-19 02:00:00 12 10 Noroeste 20 Noroeste 0 -- -- 84
2018-01-19 01:00:00 12 12 Noroeste 18 Noroeste 0 -- -- 86
2018-01-19 00:00:00 12.6 11 Noroeste 17 Noroeste 0 -- -- 83
2018-01-18 23:00:00 12.8 9 Noroeste 16 Noroeste 0 -- -- 85
2018-01-18 22:00:00 13.4 8 Noroeste 12 Norte 0 -- -- 84
2018-01-18 21:00:00 14 5 Noroeste 22 Nordeste 0 -- -- 84
2018-01-18 20:00:00 14.7 18 Nordeste 29 Nordeste 0 -- -- 85
2018-01-18 19:00:00 14.7 17 Nordeste 23 Nordeste 0 -- -- 84
2018-01-18 18:00:00 14.8 16 Nordeste 29 Nordeste 0 -- -- 83
2018-01-18 17:00:00 15 20 Nordeste 30 Nordeste 0 -- -- 81
2018-01-18 16:00:00 15.3 23 Nordeste 31 Nordeste 0 -- -- 78
2018-01-18 15:00:00 15.7 16 Nordeste 24 Nordeste 0 -- -- 72
2018-01-18 14:00:00 15.6 22 Nordeste 27 Nordeste 0 -- -- 70
2018-01-18 13:00:00 15.9 12 Nordeste 21 Nordeste 0 -- -- 68
2018-01-18 12:00:00 15.5 11 Norte 17 Norte 0 -- -- 66
2018-01-18 11:00:00 14.2 9 Norte 22 Noroeste 0 -- -- 71
2018-01-18 10:00:00 11.7 13 Noroeste 22 Noroeste 0 -- -- 77
2018-01-18 09:00:00 10.6 13 Noroeste 19 Noroeste 0 -- -- 77
2018-01-18 08:00:00 10.6 12 Noroeste 19 Noroeste 0 -- -- 77
2018-01-18 07:00:00 10.6 14 Noroeste 18 Noroeste 0 -- -- 76
2018-01-18 06:00:00 9.9 12 Noroeste 21 Noroeste 0 -- -- 76
2018-01-18 05:00:00 10.5 13 Noroeste 24 Noroeste 0 -- -- 75
2018-01-18 04:00:00 10.8 14 Noroeste 22 Noroeste 0 -- -- 73
2018-01-18 03:00:00 11.5 13 Noroeste 21 Noroeste 0 -- -- 67
2018-01-18 02:00:00 10.5 11 Noroeste 20 Noroeste 0 -- -- 68
2018-01-18 01:00:00 11.8 12 Noroeste 21 Noroeste 0 -- -- 65
2018-01-18 00:00:00 12.4 9 Noroeste 15 Noroeste 0 -- -- 63
2018-01-17 23:00:00 12.2 12 Noroeste 17 Oeste 0 -- -- 64
2018-01-17 22:00:00 12.1 6 Noroeste 17 Noroeste 0 -- -- 68
2018-01-17 21:00:00 12.5 10 Noroeste 17 Oeste 0 -- -- 70
2018-01-17 20:00:00 13.3 4 Noroeste 6 Noroeste 0 -- -- 89
2018-01-17 19:00:00 14.2 4 Noroeste 7 Oeste 0 -- -- 89
2018-01-17 18:00:00 15.4 5 Nordeste 18 Sudeste 0 -- -- 87
2018-01-17 17:00:00 15.5 16 Sudeste 21 Sudeste 0 -- -- 86
2018-01-17 16:00:00 15.5 14 Sudeste 22 Sudeste 0 -- -- 83
2018-01-17 15:00:00 15.3 21 Sudeste 26 Sur 0 -- -- 78
2018-01-17 14:00:00 15.1 20 Sur 24 Sur 0 -- -- 71
2018-01-17 13:00:00 15.9 9 Sudeste 13 Sur 0 -- -- 64
2018-01-17 12:00:00 17.2 4 Sur 12 Noroeste 0 -- -- 49
2018-01-17 11:00:00 15 4 Oeste 14 Oeste 0 -- -- 53
2018-01-17 10:00:00 11.4 13 Oeste 22 Noroeste 0 -- -- 64
2018-01-17 09:00:00 9.7 11 Noroeste 16 Noroeste 0 -- -- 68
2018-01-17 08:00:00 10.1 4 Oeste 13 Oeste 0 -- -- 68
2018-01-17 07:00:00 10.9 5 Sudoeste 10 Noroeste 0 -- -- 66
2018-01-17 06:00:00 10.4 8 Oeste 13 Noroeste 0 -- -- 69
2018-01-17 05:00:00 10.7 5 Noroeste 7 Noroeste 0 -- -- 66
2018-01-17 04:00:00 9.8 3 Noroeste 11 Noroeste 0 -- -- 66
2018-01-17 03:00:00 11.1 4 Noroeste 24 Oeste 0 -- -- 62
2018-01-17 02:00:00 13.6 18 Oeste 24 Oeste 0 -- -- 54
2018-01-17 01:00:00 11.8 5 Oeste 17 Sudoeste 0 -- -- 62
2018-01-17 00:00:00 12.5 12 Sudoeste 17 Sudoeste 0 -- -- 63
2018-01-16 23:00:00 12.1 13 Noroeste 26 Sudoeste 0 -- -- 60
2018-01-16 22:00:00 13.4 10 Sudoeste 33 Oeste 0 -- -- 64
2018-01-16 21:00:00 14.6 21 Oeste 30 Oeste 0 -- -- 59
2018-01-16 20:00:00 16 21 Oeste 36 Sudoeste 0 -- -- 51
2018-01-16 19:00:00 16.6 14 Sudoeste 25 Sudoeste 0 -- -- 48
2018-01-16 18:00:00 18 18 Oeste 24 Sudoeste 0 -- -- 46
2018-01-16 17:00:00 17.2 11 Sur 22 Sur 0 -- -- 62
2018-01-16 16:00:00 16.5 22 Sur 28 Sur 0 -- -- 68
2018-01-16 15:00:00 16.5 4 Sudeste 5 Sudeste 0 -- -- 55
2018-01-16 14:00:00 15.8 3 Nordeste 8 Este 0 -- -- 58
2018-01-16 13:00:00 14.4 5 Este 10 Sudeste 0 -- -- 59
2018-01-16 12:00:00 13.7 6 Este 11 Nordeste 0 -- -- 53
2018-01-16 11:00:00 11.3 6 Norte 9 Noroeste 0 -- -- 66
2018-01-16 10:00:00 8.2 8 Noroeste 19 Oeste 0 -- -- 69
2018-01-16 09:00:00 7.3 9 Oeste 16 Oeste 0 -- -- 70
2018-01-16 08:00:00 5.9 3 Noroeste 13 Oeste 0 -- -- 74
2018-01-16 07:00:00 5.9 13 Oeste 19 Oeste 0 -- -- 75
2018-01-16 06:00:00 6.8 13 Oeste 30 Oeste 0 -- -- 73
2018-01-16 05:00:00 6.6 15 Oeste 20 Oeste 0 -- -- 74
2018-01-16 04:00:00 6.8 14 Noroeste 22 Oeste 0 -- -- 73
2018-01-16 03:00:00 7.6 16 Oeste 30 Oeste 0 -- -- 71
2018-01-16 02:00:00 9.4 21 Sudoeste 28 Sudoeste 0 -- -- 69
2018-01-16 01:00:00 9 18 Oeste 27 Oeste 0 -- -- 70
2018-01-16 00:00:00 9.1 22 Oeste 26 Oeste 0 -- -- 68
2018-01-15 23:00:00 9.9 13 Oeste 25 Oeste 0 -- -- 69
2018-01-15 22:00:00 10.9 14 Oeste 22 Sudoeste 0 -- -- 68
2018-01-15 21:00:00 10.3 12 Oeste 18 Sudoeste 0 -- -- 72
2018-01-15 20:00:00 12.5 4 Sudoeste 9 Nordeste 0 -- -- 69
2018-01-15 19:00:00 13.5 4 Este 11 Nordeste 0 -- -- 64
2018-01-15 18:00:00 13.7 6 Este 12 Nordeste 0 -- -- 64
2018-01-15 17:00:00 14.2 9 Nordeste 17 Nordeste 0 -- -- 64
2018-01-15 16:00:00 14.1 10 Nordeste 18 Nordeste 0 -- -- 62
2018-01-15 15:00:00 14 9 Nordeste 18 Norte 0 -- -- 62
2018-01-15 14:00:00 13.4 12 Norte 26 Norte 0 -- -- 58
2018-01-15 13:00:00 13.5 17 Norte 24 Norte 0 -- -- 57
2018-01-15 12:00:00 12.6 12 Norte 25 Norte 0 -- -- 60
2018-01-15 11:00:00 11.4 15 Noroeste 26 Noroeste 0 -- -- 61
2018-01-15 10:00:00 9.9 9 Noroeste 15 Noroeste 0 -- -- 69
2018-01-15 09:00:00 9 9 Noroeste 19 Noroeste 0 -- -- 71
2018-01-15 08:00:00 8.5 9 Noroeste 15 Noroeste 0 -- -- 73
2018-01-15 07:00:00 8.8 6 Noroeste 13 Noroeste 0 -- -- 73
2018-01-15 06:00:00 9 9 Oeste 14 Noroeste 0 -- -- 72
2018-01-15 05:00:00 9.2 8 Norte 14 Noroeste 0 -- -- 73
2018-01-15 04:00:00 9.2 8 Noroeste 19 Noroeste 0 -- -- 75
2018-01-15 03:00:00 10 9 Noroeste 17 Norte 0 -- -- 70
2018-01-15 02:00:00 9.8 10 Norte 16 Norte 0 -- -- 77
2018-01-15 01:00:00 10.1 10 Norte 19 Norte 0 -- -- 76
2018-01-15 00:00:00 10.1 13 Norte 22 Noroeste 0 -- -- 76
2018-01-14 23:00:00 10.7 13 Norte 25 Norte 0 -- -- 72
2018-01-14 22:00:00 11.1 8 Norte 24 Noroeste 0 -- -- 68
2018-01-14 21:00:00 10.9 8 Noroeste 32 Norte 0 -- -- 70
2018-01-14 20:00:00 11.6 11 Norte 22 Sudoeste 0 -- -- 70
2018-01-14 19:00:00 12.4 16 Sudoeste 26 Sudoeste 0 -- -- 66
2018-01-14 18:00:00 12.9 7 Noroeste 13 Oeste 0 -- -- 65
2018-01-14 17:00:00 13.4 9 Sudoeste 18 Oeste 0 -- -- 67
2018-01-14 16:00:00 13.7 13 Sudeste 18 Sudeste 0 -- -- 72
2018-01-14 15:00:00 13.7 16 Sudeste 19 Sudeste 0 -- -- 72
2018-01-14 14:00:00 13.9 14 Sudeste 20 Este 0 -- -- 67
2018-01-14 13:00:00 14.1 8 Este 10 Este 0 -- -- 60
2018-01-14 12:00:00 14 8 Este 10 Este 0 -- -- 54
2018-01-14 11:00:00 14.1 3 Sudoeste 14 Oeste 0 -- -- 51
2018-01-14 10:00:00 9.9 15 Sudoeste 26 Oeste 0 -- -- 58
2018-01-14 09:00:00 8.5 22 Sudoeste 29 Sudoeste 0 -- -- 61
2018-01-14 08:00:00 8.2 13 Sudoeste 28 Oeste 0 -- -- 63
2018-01-14 07:00:00 7.2 17 Oeste 24 Oeste 0 -- -- 68
2018-01-14 06:00:00 10.2 13 Oeste 19 Oeste 0 -- -- 59
2018-01-14 05:00:00 10 11 Oeste 21 Sudoeste 0 -- -- 60
2018-01-14 04:00:00 9.7 10 Oeste 22 Sudoeste 0 -- -- 62
2018-01-14 03:00:00 10.9 17 Sudoeste 27 Sudoeste 0 -- -- 59
2018-01-14 02:00:00 8.8 15 Sudoeste 21 Oeste 0 -- -- 72
2018-01-14 01:00:00 11.2 12 Oeste 25 Sudoeste 0 -- -- 66
2018-01-14 00:00:00 10.4 19 Sudoeste 24 Sudoeste 0 -- -- 73
2018-01-13 23:00:00 9.9 14 Oeste 20 Sudoeste 0 -- -- 76
2018-01-13 22:00:00 10.5 7 Oeste 13 Oeste 0 -- -- 76
2018-01-13 21:00:00 11.3 9 Oeste 17 Sudoeste 0 -- -- 71
2018-01-13 20:00:00 12.3 6 Sudoeste 14 Sudoeste 0 -- -- 69
2018-01-13 19:00:00 13 6 Oeste 10 Sudoeste 0 -- -- 66
2018-01-13 18:00:00 13.6 2 Norte 7 Noroeste 0 -- -- 64
2018-01-13 17:00:00 14.4 4 Este 7 Nordeste 0 -- -- 61
2018-01-13 16:00:00 13.9 2 Sudoeste 29 Sur 0 -- -- 69
2018-01-13 15:00:00 13.5 30 Sur 35 Sur 0 -- -- 79
2018-01-13 14:00:00 12.7 9 Este 13 Este 0 -- -- 68
2018-01-13 13:00:00 13.4 8 Este 10 Nordeste 0 -- -- 55
2018-01-13 12:00:00 12.3 4 Nordeste 11 Noroeste 0 -- -- 51
2018-01-13 11:00:00 9.8 7 Noroeste 18 Oeste 0 -- -- 55
2018-01-13 10:00:00 7.5 13 Oeste 18 Oeste 0 -- -- 58
2018-01-13 09:00:00 6.6 7 Oeste 17 Oeste 0 -- -- 61
2018-01-13 08:00:00 6.3 15 Oeste 21 Oeste 0 -- -- 64
2018-01-13 07:00:00 6.7 17 Oeste 21 Oeste 0 -- -- 61
2018-01-13 06:00:00 6.5 14 Oeste 21 Oeste 0 -- -- 64
2018-01-13 05:00:00 7.7 16 Oeste 21 Oeste 0 -- -- 58
2018-01-13 04:00:00 7.9 7 Oeste 13 Oeste 0 -- -- 60
2018-01-13 03:00:00 9 6 Noroeste 16 Oeste 0 -- -- 59
2018-01-13 02:00:00 10.3 13 Oeste 18 Oeste 0 -- -- 56
2018-01-13 01:00:00 10.8 8 Oeste 15 Oeste 0 -- -- 53
2018-01-13 00:00:00 10.9 9 Oeste 12 Oeste 0 -- -- 52
2018-01-12 23:00:00 11.5 6 Noroeste 12 Oeste 0 -- -- 51
2018-01-12 22:00:00 12.5 11 Oeste 24 Oeste 0 -- -- 43
2018-01-12 21:00:00 13.1 15 Oeste 24 Oeste 0 -- -- 44
2018-01-12 20:00:00 13.3 6 Oeste 22 Sur 0 -- -- 40
2018-01-12 19:00:00 14.2 11 Sudoeste 31 Sur 0 -- -- 41
2018-01-12 18:00:00 15.1 19 Sur 44 Sur 0 -- -- 40
2018-01-12 17:00:00 15.1 36 Sur 45 Sur 0 -- -- 59
2018-01-12 16:00:00 15.5 37 Sur 42 Sur 0 -- -- 51
2018-01-12 15:00:00 15.5 31 Sur 50 Sudeste 0 -- -- 54
2018-01-12 14:00:00 16.6 9 Sur 29 Sudeste 0 -- -- 38
2018-01-12 13:00:00 16.3 4 Sur 21 Sudeste 0 -- -- 34
2018-01-12 12:00:00 15.9 9 Sudoeste 26 Noroeste 0 -- -- 34
2018-01-12 11:00:00 13.5 18 Noroeste 26 Noroeste 0 -- -- 37
2018-01-12 10:00:00 12.2 13 Noroeste 20 Noroeste 0 -- -- 43
2018-01-12 09:00:00 10.9 7 Oeste 13 Oeste 0 -- -- 43
2018-01-12 08:00:00 9.7 14 Oeste 28 Oeste 0 -- -- 45
2018-01-12 07:00:00 11.5 17 Noroeste 27 Noroeste 0 -- -- 46
2018-01-12 06:00:00 10.8 15 Oeste 37 Noroeste 0 -- -- 48
2018-01-12 05:00:00 11.6 12 Oeste 31 Oeste 0 -- -- 46
2018-01-12 04:00:00 11.4 16 Oeste 40 Oeste 0 -- -- 45
2018-01-12 03:00:00 11.4 18 Oeste 32 Noroeste 0 -- -- 45
2018-01-12 02:00:00 11.8 18 Oeste 28 Sudoeste 0 -- -- 46
2018-01-12 01:00:00 11.4 18 Sudoeste 23 Sudoeste 0 -- -- 46
2018-01-12 00:00:00 12.9 9 Oeste 26 Noroeste 0 -- -- 41
2018-01-11 23:00:00 13.5 17 Noroeste 29 Oeste 0 -- -- 40
2018-01-11 22:00:00 13.4 7 Noroeste 35 Noroeste 0 -- -- 43
2018-01-11 21:00:00 13.9 21 Noroeste 41 Oeste 0 -- -- 42
2018-01-11 20:00:00 12.9 17 Oeste 61 Noroeste 0 -- -- 48
2018-01-11 19:00:00 13.1 35 Noroeste 51 Noroeste 0 -- -- 48
2018-01-11 18:00:00 13.2 31 Noroeste 55 Noroeste 0 -- -- 50
2018-01-11 17:00:00 14.9 31 Noroeste 51 Noroeste 0 -- -- 45
2018-01-11 16:00:00 15.7 27 Oeste 50 Oeste 0 -- -- 42
2018-01-11 15:00:00 15.7 36 Oeste 59 Oeste 0 -- -- 44
2018-01-11 14:00:00 15.8 31 Noroeste 54 Oeste 0 -- -- 44
2018-01-11 13:00:00 15.4 26 Oeste 52 Noroeste 0 -- -- 43
2018-01-11 12:00:00 15.1 40 Noroeste 60 Noroeste 0 -- -- 45
2018-01-11 11:00:00 15.3 37 Noroeste 53 Noroeste 0 -- -- 40
2018-01-11 10:00:00 14.9 23 Noroeste 36 Noroeste 0 -- -- 37
2018-01-11 09:00:00 13.4 26 Noroeste 39 Noroeste 0 -- -- 40
2018-01-11 08:00:00 13.2 26 Noroeste 45 Noroeste 0 -- -- 44
2018-01-11 07:00:00 13.9 33 Noroeste 55 Noroeste 0 -- -- 43
2018-01-11 06:00:00 13.8 31 Noroeste 54 Noroeste 0 -- -- 46
2018-01-11 05:00:00 14.2 23 Noroeste 46 Noroeste 0 -- -- 46
2018-01-11 04:00:00 14.6 27 Noroeste 45 Noroeste 0 -- -- 47
2018-01-11 03:00:00 15.2 15 Noroeste 62 Oeste 0 -- -- 47
2018-01-11 02:00:00 15.9 34 Oeste 63 Noroeste 0 -- -- 48
2018-01-11 01:00:00 16.7 32 Oeste 53 Noroeste 0 -- -- 50
2018-01-11 00:00:00 13.4 7 Norte 18 Noroeste 0 -- -- 77
2018-01-10 23:00:00 14.1 3 Este 19 Sur 0 -- -- 75
2018-01-10 22:00:00 14.3 17 Sur 22 Sur 0 -- -- 66
2018-01-10 21:00:00 15.4 9 Sudoeste 14 Sudoeste 0 -- -- 50
2018-01-10 20:00:00 15.1 2 Sudoeste 8 Sudoeste 0 -- -- 63
2018-01-10 19:00:00 16 4 Este 22 Sudoeste 0 -- -- 56
2018-01-10 18:00:00 15.2 4 Nordeste 34 Sur 0 -- -- 81
2018-01-10 17:00:00 16.1 9 Este 51 Noroeste 0 -- -- 68
2018-01-10 16:00:00 18.7 34 Noroeste 55 Noroeste 0 -- -- 42
2018-01-10 15:00:00 17.1 17 Oeste 38 Noroeste 0 -- -- 67
2018-01-10 14:00:00 16.5 13 Sudeste 35 Noroeste 0 -- -- 69
2018-01-10 13:00:00 15.9 8 Este 20 Sudeste 0 -- -- 76
2018-01-10 12:00:00 14.2 11 Sudeste 15 Sur 0 -- -- 82
2018-01-10 11:00:00 13.1 8 Oeste 13 Sudoeste 0 -- -- 82
2018-01-10 10:00:00 10.3 9 Oeste 13 Noroeste 0 -- -- 87
2018-01-10 09:00:00 9.1 5 Oeste 16 Noroeste 0 -- -- 91
2018-01-10 08:00:00 9.4 9 Noroeste 15 Noroeste 0 -- -- 90
2018-01-10 07:00:00 9.7 3 Noroeste 15 Noroeste 0 -- -- 89
2018-01-10 06:00:00 9.4 6 Noroeste 19 Noroeste 0.2 -- -- 89
2018-01-10 05:00:00 9.8 6 Sudoeste 15 Oeste 0.4 -- -- 83
2018-01-10 04:00:00 9.9 12 Noroeste 14 Oeste 0.2 -- -- 82
2018-01-10 03:00:00 10.4 0 Calma 11 Oeste 0 -- -- 79
2018-01-10 02:00:00 10.2 4 Oeste 22 Sudoeste 0.8 -- -- 75
2018-01-10 01:00:00 11.8 3 Sur 8 Oeste 0 -- -- 69
2018-01-10 00:00:00 12 8 Oeste 18 Oeste 0 -- -- 65
2018-01-09 23:00:00 12.3 8 Oeste 17 Oeste 0 -- -- 63
2018-01-09 22:00:00 12.1 9 Oeste 18 Sudoeste 0 -- -- 65
2018-01-09 21:00:00 11.7 11 Oeste 21 Sudoeste 0 -- -- 62
2018-01-09 20:00:00 13.2 17 Oeste 22 Sudoeste 0 -- -- 55
2018-01-09 19:00:00 13 8 Sudoeste 16 Sudoeste 0 -- -- 57
2018-01-09 18:00:00 14 8 Sur 22 Sudeste 0 -- -- 57
2018-01-09 17:00:00 14.8 12 Sudoeste 24 Sur 0 -- -- 48
2018-01-09 16:00:00 14.4 20 Sur 36 Sur 0 -- -- 58
2018-01-09 15:00:00 14.6 27 Sur 35 Sur 0 -- -- 57
2018-01-09 14:00:00 14.5 24 Sur 31 Sudeste 0 -- -- 56
2018-01-09 13:00:00 13.2 15 Sudeste 23 Sudeste 0 -- -- 68
2018-01-09 12:00:00 12.9 3 Este 7 Noroeste 0 -- -- 59
2018-01-09 11:00:00 9.7 5 Noroeste 10 Oeste 0 -- -- 67
2018-01-09 10:00:00 7 9 Oeste 20 Noroeste 0 -- -- 73
2018-01-09 09:00:00 6.7 11 Oeste 20 Oeste 0 -- -- 72
2018-01-09 08:00:00 6.3 14 Oeste 18 Oeste 0 -- -- 75
2018-01-09 07:00:00 5.4 7 Noroeste 21 Oeste 0 -- -- 76
2018-01-09 06:00:00 5.2 10 Noroeste 15 Noroeste 0 -- -- 80
2018-01-09 05:00:00 5.5 13 Noroeste 21 Oeste 0 -- -- 80
2018-01-09 04:00:00 6 18 Noroeste 23 Oeste 0 -- -- 80
2018-01-09 03:00:00 6.6 18 Oeste 23 Oeste 0 -- -- 79
2018-01-09 02:00:00 7.1 15 Oeste 21 Noroeste 0 -- -- 82
2018-01-09 01:00:00 7.5 14 Oeste 19 Noroeste 0 -- -- 82
2018-01-09 00:00:00 7.7 10 Oeste 14 Oeste 0 -- -- 82
2018-01-08 23:00:00 8.3 12 Oeste 17 Oeste 0 -- -- 81
2018-01-08 22:00:00 7.9 13 Oeste 17 Oeste 0 -- -- 80
2018-01-08 21:00:00 9.4 14 Oeste 18 Oeste 0 -- -- 77
2018-01-08 20:00:00 10 6 Oeste 11 Sudoeste 0 -- -- 74
2018-01-08 19:00:00 11.8 12 Sur 25 Sudeste 0 -- -- 73
2018-01-08 18:00:00 12.5 22 Sudeste 25 Sudeste 0 -- -- 73
2018-01-08 17:00:00 12.6 15 Sudeste 24 Este 0 -- -- 69
2018-01-08 16:00:00 11.9 19 Este 25 Este 0 -- -- 69
2018-01-08 15:00:00 12.4 14 Este 19 Este 0 -- -- 62
2018-01-08 14:00:00 12 9 Sudeste 17 Sudeste 0 -- -- 58
2018-01-08 13:00:00 13.5 5 Sudeste 13 Oeste 0 -- -- 45
2018-01-08 12:00:00 11.4 8 Oeste 16 Noroeste 0 -- -- 51
2018-01-08 11:00:00 8.8 13 Noroeste 17 Noroeste 0 -- -- 63
2018-01-08 10:00:00 6.5 6 Noroeste 12 Oeste 0 -- -- 70
2018-01-08 09:00:00 3.9 2 Noroeste 19 Noroeste 0 -- -- 75
2018-01-08 08:00:00 4.9 15 Oeste 19 Oeste 0 -- -- 74
2018-01-08 07:00:00 4.8 5 Noroeste 16 Noroeste 0 -- -- 74
2018-01-08 06:00:00 4.9 12 Noroeste 15 Noroeste 0 -- -- 74
2018-01-08 05:00:00 5.8 12 Noroeste 14 Noroeste 0 -- -- 71
2018-01-08 04:00:00 6.3 8 Noroeste 13 Noroeste 0 -- -- 68
2018-01-08 03:00:00 6.7 12 Oeste 17 Oeste 0 -- -- 64
2018-01-08 02:00:00 7.1 2 Oeste 15 Oeste 0 -- -- 62
2018-01-08 01:00:00 7.4 10 Oeste 16 Oeste 0 -- -- 62
2018-01-08 00:00:00 8.4 9 Oeste 17 Sudoeste 0 -- -- 61
2018-01-07 23:00:00 10.1 11 Sudoeste 17 Sur 0 -- -- 54
2018-01-07 22:00:00 9.8 5 Oeste 11 Oeste 0 -- -- 55
2018-01-07 21:00:00 10.2 7 Noroeste 26 Sudeste 0 -- -- 56
2018-01-07 20:00:00 11.5 18 Sur 27 Sudeste 0 -- -- 57
2018-01-07 19:00:00 11.5 12 Sudoeste 17 Sudoeste 0 -- -- 53
2018-01-07 18:00:00 12 6 Oeste 27 Sudoeste 0 -- -- 45
2018-01-07 17:00:00 12.8 26 Sudoeste 48 Sudoeste 0 -- -- 41
2018-01-07 16:00:00 13 20 Sur 35 Sudoeste 0 -- -- 47
2018-01-07 15:00:00 13 22 Sudoeste 39 Sudoeste 0 -- -- 40
2018-01-07 14:00:00 12.5 3 Noroeste 27 Este 0 -- -- 47
2018-01-07 13:00:00 13.1 9 Nordeste 14 Nordeste 0 -- -- 45
2018-01-07 12:00:00 13.1 6 Este 14 Oeste 0 -- -- 46
2018-01-07 11:00:00 10.7 10 Noroeste 19 Oeste 0 -- -- 47
2018-01-07 10:00:00 8.1 15 Oeste 20 Oeste 0 -- -- 53
2018-01-07 09:00:00 6.8 10 Oeste 18 Oeste 0 -- -- 58
2018-01-07 08:00:00 7.9 12 Sudoeste 21 Oeste 0 -- -- 54
2018-01-07 07:00:00 7.6 12 Oeste 18 Oeste 0 -- -- 54
2018-01-07 06:00:00 6.6 14 Oeste 20 Oeste 0 -- -- 61
2018-01-07 05:00:00 8.6 10 Oeste 16 Oeste 0 -- -- 55
2018-01-07 04:00:00 9.9 8 Oeste 19 Sudoeste 0 -- -- 52
2018-01-07 03:00:00 10.1 10 Oeste 19 Oeste 0 -- -- 52
2018-01-07 02:00:00 10.4 14 Oeste 20 Oeste 0 -- -- 52
2018-01-07 01:00:00 10.2 10 Sudoeste 17 Sudoeste 0 -- -- 59
2018-01-07 00:00:00 10.3 9 Sudoeste 22 Noroeste 0 -- -- 62
2018-01-06 23:00:00 10.6 9 Noroeste 11 Noroeste 0 -- -- 60
2018-01-06 22:00:00 11.3 5 Norte 15 Noroeste 0 -- -- 57
2018-01-06 21:00:00 11.3 6 Oeste 23 Noroeste 0 -- -- 55
2018-01-06 20:00:00 12.3 15 Noroeste 32 Noroeste 0 -- -- 52
2018-01-06 19:00:00 12.9 22 Noroeste 33 Noroeste 0 -- -- 50
2018-01-06 18:00:00 12.8 13 Noroeste 49 Oeste 0 -- -- 51
2018-01-06 17:00:00 13.7 19 Sudoeste 37 Sur 0 -- -- 67
2018-01-06 16:00:00 14.1 21 Sudoeste 50 Sur 0 -- -- 63
2018-01-06 15:00:00 15.1 24 Sur 51 Sudoeste 0 -- -- 61
2018-01-06 14:00:00 15 29 Sudoeste 45 Sudeste 0 -- -- 69
2018-01-06 13:00:00 14.7 23 Este 37 Sudeste 0 -- -- 90
2018-01-06 12:00:00 13.1 4 Este 13 Oeste 0 -- -- 76
2018-01-06 11:00:00 10.6 9 Sudoeste 14 Sudoeste 0 -- -- 81
2018-01-06 10:00:00 9.2 8 Noroeste 17 Noroeste 0 -- -- 80
2018-01-06 09:00:00 8.8 5 Noroeste 15 Oeste 0 -- -- 80
2018-01-06 08:00:00 8.8 12 Oeste 19 Oeste 0 -- -- 83
2018-01-06 07:00:00 8.6 12 Noroeste 17 Oeste 0 -- -- 78
2018-01-06 06:00:00 9 12 Oeste 21 Oeste 0 -- -- 77
2018-01-06 05:00:00 9.3 14 Noroeste 21 Oeste 0 -- -- 75
2018-01-06 04:00:00 9.5 4 Oeste 13 Oeste 0 -- -- 76
2018-01-06 03:00:00 9.5 8 Oeste 17 Oeste 0 -- -- 77
2018-01-06 02:00:00 9.6 8 Noroeste 17 Noroeste 0 -- -- 79
2018-01-06 01:00:00 10.6 13 Oeste 17 Oeste 0 -- -- 79
2018-01-06 00:00:00 10.4 11 Oeste 16 Oeste 0 -- -- 84
2018-01-05 23:00:00 11.5 4 Noroeste 14 Oeste 0 -- -- 83
2018-01-05 22:00:00 12 4 Sudoeste 8 Oeste 0 -- -- 81
2018-01-05 21:00:00 13 4 Oeste 8 Noroeste 0 -- -- 82
2018-01-05 20:00:00 12.8 5 Noroeste 12 Norte 0 -- -- 88
2018-01-05 19:00:00 14.7 7 Norte 12 Norte 0 -- -- 90
2018-01-05 18:00:00 14.8 7 Norte 11 Nordeste 0 -- -- 88
2018-01-05 17:00:00 15.3 10 Este 12 Este 0 -- -- 86
2018-01-05 16:00:00 15.4 8 Sudeste 17 Sudeste 0 -- -- 86
2018-01-05 15:00:00 14.8 17 Sudeste 20 Sudeste 0 -- -- 90
2018-01-05 14:00:00 14.8 17 Sudeste 20 Sudeste 0 -- -- 86
2018-01-05 13:00:00 14.9 13 Sur 17 Sudeste 0 -- -- 80
2018-01-05 12:00:00 15.9 6 Sudeste 8 Sudeste 0 -- -- 71
2018-01-05 11:00:00 15.8 3 Nordeste 10 Noroeste 0 -- -- 67
2018-01-05 10:00:00 12.8 7 Noroeste 14 Oeste 0 -- -- 72
2018-01-05 09:00:00 11.2 9 Oeste 12 Oeste 0 -- -- 75
2018-01-05 08:00:00 11.7 4 Sudoeste 8 Sudoeste 0 -- -- 78
2018-01-05 07:00:00 11.8 5 Sudoeste 8 Sudoeste 0 -- -- 77
2018-01-05 06:00:00 11.6 3 Oeste 8 Noroeste 0 -- -- 76
2018-01-05 05:00:00 12.3 0 Calma 10 Norte 0 -- -- 75
2018-01-05 04:00:00 12.9 0 Calma 17 Noroeste 0 -- -- 75
2018-01-05 03:00:00 15.1 14 Noroeste 17 Noroeste 0 -- -- 62
2018-01-05 02:00:00 14.9 8 Sudoeste 15 Oeste 0 -- -- 65
2018-01-05 01:00:00 15.5 8 Oeste 18 Oeste 0 -- -- 62
2018-01-05 00:00:00 16.4 16 Noroeste 23 Noroeste 0 -- -- 60
2018-01-04 23:00:00 17 15 Noroeste 22 Noroeste 0 -- -- 59
2018-01-04 22:00:00 16.1 10 Sur 14 Oeste 0 -- -- 67
2018-01-04 21:00:00 16.1 6 Sudeste 11 Nordeste 0 -- -- 73
2018-01-04 20:00:00 16.7 5 Noroeste 13 Oeste 0 -- -- 77
2018-01-04 19:00:00 16.1 5 Norte 14 Norte 0 -- -- 85
2018-01-04 18:00:00 16.8 3 Norte 13 Norte 0 -- -- 78
2018-01-04 17:00:00 18.4 7 Norte 15 Noroeste 0 -- -- 73
2018-01-04 16:00:00 16.7 9 Norte 17 Norte 0 -- -- 84
2018-01-04 15:00:00 17.1 8 Norte 15 Norte 0 -- -- 81
2018-01-04 14:00:00 17.3 3 Noroeste 15 Sudeste 0 -- -- 79
2018-01-04 13:00:00 16.1 10 Sudeste 15 Sudeste 0 -- -- 81
2018-01-04 12:00:00 16.1 12 Sudeste 15 Sudeste 0 -- -- 77
2018-01-04 11:00:00 18.4 3 Sur 5 Noroeste 0 -- -- 52
2018-01-04 10:00:00 16 4 Noroeste 9 Oeste 0 -- -- 57
2018-01-04 09:00:00 14.3 4 Oeste 13 Sudoeste 0 -- -- 61
2018-01-04 08:00:00 13.5 3 Sudoeste 13 Oeste 0 -- -- 67
2018-01-04 07:00:00 14.2 6 Oeste 10 Oeste 0 -- -- 62
2018-01-04 06:00:00 14.6 2 Oeste 13 Oeste 0 -- -- 63
2018-01-04 05:00:00 14.1 12 Oeste 26 Oeste 0 -- -- 62
2018-01-04 04:00:00 14.7 17 Oeste 22 Oeste 0 -- -- 60
2018-01-04 03:00:00 15.2 15 Noroeste 23 Noroeste 0 -- -- 61
2018-01-04 02:00:00 14 9 Noroeste 13 Noroeste 0 -- -- 68
2018-01-04 01:00:00 14.5 5 Sudoeste 10 Sudoeste 0 -- -- 64
2018-01-04 00:00:00 15.3 5 Noroeste 15 Sudoeste 0 -- -- 59
2018-01-03 23:00:00 15.4 5 Sudoeste 10 Sur 0 -- -- 62
2018-01-03 22:00:00 17.1 9 Oeste 19 Oeste 0 -- -- 59
2018-01-03 21:00:00 16.4 12 Oeste 18 Oeste 0 -- -- 69
2018-01-03 20:00:00 14.4 2 Sudoeste 8 Norte 0 -- -- 86
2018-01-03 19:00:00 15.6 7 Norte 14 Nordeste 0 -- -- 88
2018-01-03 18:00:00 16.1 8 Norte 17 Nordeste 0 -- -- 85
2018-01-03 17:00:00 16 12 Norte 17 Nordeste 0 -- -- 86
2018-01-03 16:00:00 15.9 10 Norte 14 Sudeste 0 -- -- 90
2018-01-03 15:00:00 15.8 13 Sudeste 22 Sur 0 -- -- 88
2018-01-03 14:00:00 15.6 15 Sudeste 24 Sur 0 -- -- 84
2018-01-03 13:00:00 15.8 23 Sur 24 Sur 0 -- -- 71
2018-01-03 12:00:00 15.9 14 Sur 17 Sur 0 -- -- 73
2018-01-03 11:00:00 17.6 7 Sur 14 Oeste 0 -- -- 61
2018-01-03 10:00:00 15.4 6 Oeste 15 Sudoeste 0 -- -- 62
2018-01-03 09:00:00 14.6 4 Oeste 9 Noroeste 0 -- -- 63
2018-01-03 08:00:00 13.5 5 Sudoeste 11 Noroeste 0 -- -- 65
2018-01-03 07:00:00 15.1 3 Oeste 18 Oeste 0 -- -- 58
2018-01-03 06:00:00 13.4 8 Sudoeste 17 Oeste 0 -- -- 62
2018-01-03 05:00:00 14.2 10 Oeste 16 Sudoeste 0 -- -- 59
2018-01-03 04:00:00 13.2 5 Oeste 23 Sudoeste 0 -- -- 61
2018-01-03 03:00:00 13.4 9 Oeste 21 Sudoeste 0 -- -- 59
2018-01-03 02:00:00 14.3 5 Oeste 11 Sudoeste 0 -- -- 57
2018-01-03 01:00:00 13 9 Oeste 16 Sur 0 -- -- 60
2018-01-03 00:00:00 12.7 5 Oeste 18 Sur 0 -- -- 60
2018-01-02 23:00:00 14.7 13 Sur 18 Sur 0 -- -- 67
2018-01-02 22:00:00 12 12 Sur 16 Sur 0 -- -- 68
2018-01-02 21:00:00 14.7 4 Nordeste 10 Sudoeste 0 -- -- 63
2018-01-02 20:00:00 14.1 3 Sudoeste 14 Oeste 0 -- -- 56
2018-01-02 19:00:00 13.9 7 Oeste 12 Sur 0 -- -- 67
2018-01-02 18:00:00 14.6 13 Sur 15 Sur 0 -- -- 79
2018-01-02 17:00:00 15.6 6 Sur 10 Este 0 -- -- 74
2018-01-02 16:00:00 15.9 3 Sur 5 Sur 0 -- -- 68
2018-01-02 15:00:00 15.9 2 Nordeste 10 Norte 0 -- -- 74
2018-01-02 14:00:00 15.8 10 Nordeste 22 Nordeste 0 -- -- 75
2018-01-02 13:00:00 15.9 16 Nordeste 22 Nordeste 0 -- -- 86
2018-01-02 12:00:00 15.8 14 Este 22 Este 0 -- -- 79
2018-01-02 11:00:00 15.1 15 Sudeste 20 Sur 0 -- -- 73
2018-01-02 10:00:00 14.5 14 Sudoeste 18 Sudoeste 0 -- -- 40
2018-01-02 09:00:00 13.3 4 Noroeste 23 Oeste 0 -- -- 45
2018-01-02 08:00:00 12.2 14 Oeste 22 Oeste 0 -- -- 51
2018-01-02 07:00:00 12.1 13 Oeste 26 Sudoeste 0 -- -- 51
2018-01-02 06:00:00 11.8 19 Sudoeste 24 Sudoeste 0 -- -- 50
2018-01-02 05:00:00 11.5 15 Sudoeste 19 Sudoeste 0 -- -- 53
2018-01-02 04:00:00 15 4 Sur 19 Noroeste 0 -- -- 47
2018-01-02 03:00:00 14.6 14 Noroeste 23 Noroeste 0 -- -- 46
2018-01-02 02:00:00 15 16 Noroeste 30 Noroeste 0 -- -- 40
2018-01-02 01:00:00 15.3 19 Noroeste 36 Noroeste 0 -- -- 37
2018-01-02 00:00:00 15.9 20 Noroeste 33 Noroeste 0 -- -- 34
2018-01-01 23:00:00 16.9 22 Noroeste 42 Noroeste 0 -- -- 28
2018-01-01 22:00:00 14.6 5 Oeste 22 Oeste 0 -- -- 48
2018-01-01 21:00:00 14.9 15 Oeste 21 Oeste 0 -- -- 51
2018-01-01 20:00:00 15.1 9 Sudoeste 14 Oeste 0 -- -- 56
2018-01-01 19:00:00 17 14 Oeste 26 Sudoeste 0 -- -- 49
2018-01-01 18:00:00 15.6 8 Sur 36 Sur 0 -- -- 73
2018-01-01 17:00:00 15.4 31 Sur 44 Sur 0 -- -- 75
2018-01-01 16:00:00 16 36 Sur 49 Sur 0 -- -- 69
2018-01-01 15:00:00 15.8 37 Sur 46 Sur 0 -- -- 69
2018-01-01 14:00:00 15.9 35 Sur 40 Sudeste 0 -- -- 67
2018-01-01 13:00:00 18.4 13 Sur 21 Sur 0 -- -- 46
2018-01-01 12:00:00 17.2 3 Este 22 Este 0 -- -- 54
2018-01-01 11:00:00 16.2 12 Noroeste 24 Oeste 0 -- -- 34
2018-01-01 10:00:00 12.9 14 Oeste 28 Oeste 0 -- -- 44
2018-01-01 09:00:00 11.4 14 Noroeste 21 Oeste 0 -- -- 44
2018-01-01 08:00:00 12.5 13 Oeste 40 Noroeste 0 -- -- 55
2018-01-01 07:00:00 13.8 24 Noroeste 33 Noroeste 0 -- -- 53
2018-01-01 06:00:00 14.1 17 Noroeste 28 Noroeste 0 -- -- 52
2018-01-01 05:00:00 14.6 14 Noroeste 29 Oeste 0 -- -- 52
2018-01-01 04:00:00 15 9 Norte 34 Oeste 0 -- -- 50
2018-01-01 03:00:00 16.2 10 Oeste 35 Oeste 0 -- -- 42
2018-01-01 02:00:00 17.3 23 Noroeste 41 Noroeste 0 -- -- 40
2018-01-01 01:00:00 18 21 Noroeste 56 Noroeste 0 -- -- 46
2018-01-01 00:00:00 19.1 33 Noroeste 54 Noroeste 0 -- -- 48
2017-12-31 23:00:00 19.3 33 Noroeste 60 Noroeste 0 -- -- 48
2017-12-31 22:00:00 19.4 25 Noroeste 44 Noroeste 0 -- -- 48
2017-12-31 21:00:00 19.3 18 Oeste 42 Noroeste 0 -- -- 47
2017-12-31 20:00:00 19.3 33 Noroeste 48 Noroeste 0 -- -- 45
2017-12-31 19:00:00 18.4 16 Oeste 28 Oeste 0 -- -- 50
2017-12-31 18:00:00 14.5 5 Noroeste 10 Norte 0 -- -- 75
2017-12-31 17:00:00 15.1 3 Este 6 Sur 0 -- -- 84
2017-12-31 16:00:00 14.7 0 Calma 9 Norte 0 -- -- 84
2017-12-31 15:00:00 14.3 5 Norte 10 Nordeste 0 -- -- 83
2017-12-31 14:00:00 14.3 3 Nordeste 6 Este 0 -- -- 82
2017-12-31 13:00:00 14.1 5 Nordeste 9 Nordeste 0 -- -- 84
2017-12-31 12:00:00 13.6 5 Nordeste 10 Nordeste 0 -- -- 83
2017-12-31 11:00:00 12.3 5 Norte 8 Norte 0 -- -- 74
2017-12-31 10:00:00 11.4 3 Norte 10 Oeste 0 -- -- 77
2017-12-31 09:00:00 10.4 0 Calma 15 Oeste 0 -- -- 79
2017-12-31 08:00:00 9.1 9 Oeste 14 Oeste 0 -- -- 85
2017-12-31 07:00:00 10.3 3 Noroeste 11 Sudoeste 0 -- -- 81
2017-12-31 06:00:00 10.4 5 Noroeste 9 Oeste 0 -- -- 81
2017-12-31 05:00:00 10.4 4 Noroeste 8 Noroeste 0 -- -- 80
2017-12-31 04:00:00 10.9 4 Noroeste 13 Oeste 0 -- -- 82
2017-12-31 03:00:00 11.1 6 Noroeste 9 Oeste 0 -- -- 83
2017-12-31 02:00:00 12.8 4 Noroeste 10 Sudoeste 0 -- -- 81
2017-12-31 01:00:00 13.6 5 Sudoeste 17 Oeste 0 -- -- 79